Time;durP1;ratioP1;P1;durP2;ratioP2;P2;SDS_P1;SDS_P2;PMS_P1;PMS_P2;Temp;Humidity;BMP_temperature;BMP_pressure;BME280_temperature;BME280_humidity;BME280_pressure;Samples;Min_cycle;Max_cycle;Signal;HPM_P1;HPM_P2
2021/01/29 00:00:40;;;;;;;1.60;1.20;;;7.10;98.20;;;;;;4977847;28;20493;-74
2021/01/29 00:03:08;;;;;;;1.60;1.20;;;7.10;98.20;;;;;;4984136;28;20950;-76
2021/01/29 00:05:39;;;;;;;1.70;1.30;;;7.20;98.20;;;;;;4982410;28;20478;-78
2021/01/29 00:08:06;;;;;;;1.60;1.20;;;7.20;98.20;;;;;;4983305;28;20478;-77
2021/01/29 00:10:32;;;;;;;1.60;1.30;;;7.20;98.20;;;;;;4983690;28;20517;-76
2021/01/29 00:13:01;;;;;;;1.67;1.30;;;7.20;98.20;;;;;;4978096;28;20505;-78
2021/01/29 00:15:29;;;;;;;1.60;1.20;;;7.30;98.20;;;;;;4978496;28;20470;-75
2021/01/29 00:17:57;;;;;;;1.63;1.30;;;7.30;98.20;;;;;;4978595;28;20849;-77
2021/01/29 00:20:27;;;;;;;1.60;1.20;;;7.40;98.20;;;;;;4975281;28;20902;-76
2021/01/29 00:22:54;;;;;;;1.60;1.20;;;7.40;98.20;;;;;;4973294;28;20520;-75
2021/01/29 00:25:23;;;;;;;1.60;1.20;;;7.50;98.20;;;;;;4980818;28;20470;-77
2021/01/29 00:27:49;;;;;;;1.70;1.30;;;7.50;98.20;;;;;;4974822;28;20973;-75
2021/01/29 00:30:19;;;;;;;1.60;1.20;;;7.60;98.20;;;;;;4973721;28;20993;-76
2021/01/29 00:32:47;;;;;;;1.60;1.20;;;7.60;98.20;;;;;;4975104;28;20536;-76
2021/01/29 00:35:15;;;;;;;1.60;1.20;;;7.60;98.20;;;;;;4977062;28;21106;-75
2021/01/29 00:37:41;;;;;;;1.70;1.23;;;7.70;98.20;;;;;;4978205;28;20462;-77
2021/01/29 00:40:09;;;;;;;1.63;1.27;;;7.70;98.20;;;;;;4973613;28;20552;-76
2021/01/29 00:42:36;;;;;;;1.60;1.30;;;7.70;98.20;;;;;;4974093;28;20561;-75
2021/01/29 00:45:05;;;;;;;1.63;1.30;;;7.70;98.20;;;;;;4980897;28;20557;-76
2021/01/29 00:47:31;;;;;;;1.60;1.20;;;7.70;98.20;;;;;;4975886;28;20763;-76
2021/01/29 00:49:59;;;;;;;1.63;1.20;;;7.80;98.20;;;;;;4971724;28;20553;-77
2021/01/29 00:52:25;;;;;;;1.60;1.20;;;7.80;98.20;;;;;;4973537;28;20560;-75
2021/01/29 00:54:52;;;;;;;1.67;1.20;;;7.80;98.20;;;;;;4972403;28;20574;-77
2021/01/29 00:57:18;;;;;;;1.60;1.20;;;7.80;98.20;;;;;;4973253;28;20478;-78
2021/01/29 00:59:45;;;;;;;1.70;1.50;;;7.80;98.20;;;;;;4973209;28;20871;-76
2021/01/29 01:02:11;;;;;;;1.60;1.20;;;7.80;98.20;;;;;;4973119;28;20529;-75
2021/01/29 01:04:37;;;;;;;1.60;1.20;;;7.90;98.20;;;;;;4978030;28;20552;-74
2021/01/29 01:07:05;;;;;;;1.60;1.20;;;7.90;98.20;;;;;;4980471;28;20466;-76
2021/01/29 01:09:31;;;;;;;1.60;1.20;;;7.90;98.20;;;;;;4977460;28;20472;-76
2021/01/29 01:11:58;;;;;;;1.60;1.30;;;7.90;98.20;;;;;;4982194;28;20540;-77
2021/01/29 01:14:24;;;;;;;1.60;1.20;;;7.90;98.20;;;;;;4978618;28;20500;-76
2021/01/29 01:16:51;;;;;;;1.63;1.20;;;7.90;98.20;;;;;;4974690;28;20607;-76
2021/01/29 01:19:17;;;;;;;1.60;1.20;;;7.80;98.20;;;;;;4973462;28;20545;-76
2021/01/29 01:21:44;;;;;;;1.70;1.20;;;7.80;98.20;;;;;;4974341;28;20478;-77
2021/01/29 01:24:11;;;;;;;1.60;1.20;;;7.80;98.20;;;;;;4973009;28;20502;-77
2021/01/29 01:26:38;;;;;;;1.60;1.20;;;7.90;98.20;;;;;;4979443;28;20501;-77
2021/01/29 01:29:04;;;;;;;1.60;1.10;;;7.90;98.20;;;;;;4982167;28;20817;-77
2021/01/29 01:31:31;;;;;;;1.60;1.10;;;7.90;98.20;;;;;;4976696;28;20971;-77
2021/01/29 01:33:57;;;;;;;1.60;1.20;;;7.90;98.20;;;;;;4978218;28;20553;-80
2021/01/29 01:36:24;;;;;;;1.60;1.20;;;7.90;98.20;;;;;;4983030;28;20484;-81
2021/01/29 01:38:50;;;;;;;1.70;1.30;;;8.00;98.20;;;;;;4986835;28;20512;-80
2021/01/29 01:41:18;;;;;;;1.60;1.20;;;8.00;98.20;;;;;;4966271;28;20486;-79
2021/01/29 01:43:45;;;;;;;1.60;1.10;;;8.00;98.20;;;;;;4970277;28;20492;-78
2021/01/29 01:46:13;;;;;;;1.70;1.27;;;8.00;98.20;;;;;;4978184;28;20568;-79
2021/01/29 01:48:54;;;;;;;1.60;1.20;;;8.00;98.20;;;;;;4977847;28;21073;-79
2021/01/29 01:51:34;;;;;;;1.63;1.20;;;7.90;98.20;;;;;;4972493;28;20492;-78
2021/01/29 01:54:06;;;;;;;1.70;1.30;;;7.90;98.20;;;;;;4978330;28;20823;-77
2021/01/29 01:56:42;;;;;;;1.60;1.20;;;8.00;98.20;;;;;;4982097;28;20482;-77
2021/01/29 01:59:15;;;;;;;1.70;1.30;;;8.00;98.20;;;;;;4980328;28;20568;-78
2021/01/29 02:01:43;;;;;;;1.70;1.20;;;8.00;98.20;;;;;;4976226;28;20489;-78
2021/01/29 02:04:11;;;;;;;1.67;1.20;;;8.10;98.20;;;;;;4980366;28;20520;-77
2021/01/29 02:06:48;;;;;;;1.67;1.20;;;8.10;98.20;;;;;;4984935;28;20484;-79
2021/01/29 02:09:16;;;;;;;1.60;1.20;;;8.10;98.20;;;;;;4976793;28;20453;-76
2021/01/29 02:11:43;;;;;;;1.63;1.20;;;8.20;98.20;;;;;;4975834;28;21042;-78
2021/01/29 02:14:10;;;;;;;1.70;1.40;;;8.20;98.20;;;;;;4976301;28;20490;-77
2021/01/29 02:16:44;;;;;;;1.60;1.20;;;8.20;98.20;;;;;;4979465;28;20502;-78
2021/01/29 02:19:44;;;;;;;1.60;1.20;;;8.20;98.20;;;;;;4972478;28;20517;-79
2021/01/29 02:22:43;;;;;;;1.63;1.20;;;8.10;98.20;;;;;;4976701;28;20568;-78
2021/01/29 02:25:48;;;;;;;1.67;1.20;;;8.20;98.20;;;;;;4945715;28;20498;-77
2021/01/29 02:28:31;;;;;;;1.70;1.47;;;8.10;98.20;;;;;;4969548;28;20501;-78
2021/01/29 02:31:20;;;;;;;1.70;1.20;;;8.10;98.20;;;;;;4970657;28;20517;-78
2021/01/29 02:34:23;;;;;;;1.63;1.20;;;8.10;98.20;;;;;;4964168;28;20826;-79
2021/01/29 02:37:44;;;;;;;1.63;1.20;;;8.10;98.20;;;;;;4977933;28;20551;-80
2021/01/29 02:40:18;;;;;;;1.60;1.10;;;8.10;98.20;;;;;;4980262;28;20500;-79
2021/01/29 02:43:04;;;;;;;1.70;1.40;;;8.20;98.20;;;;;;4975013;28;20841;-77
2021/01/29 02:45:38;;;;;;;1.60;1.10;;;8.20;98.20;;;;;;4974951;28;20481;-78
2021/01/29 02:48:16;;;;;;;1.67;1.27;;;8.20;98.20;;;;;;4974757;28;20481;-78
2021/01/29 02:50:57;;;;;;;1.70;1.30;;;8.30;98.20;;;;;;4973777;28;20493;-78
2021/01/29 02:53:39;;;;;;;1.60;1.20;;;8.30;98.20;;;;;;4974568;28;20476;-77
2021/01/29 02:56:26;;;;;;;1.63;1.20;;;8.30;98.20;;;;;;4979683;28;20457;-77
2021/01/29 02:59:00;;;;;;;1.60;1.10;;;8.30;98.20;;;;;;4975252;28;20492;-77
2021/01/29 03:01:33;;;;;;;2.20;2.00;;;8.40;98.20;;;;;;4971569;28;20501;-77
2021/01/29 03:04:05;;;;;;;1.70;1.30;;;8.30;98.20;;;;;;4973151;28;20469;-78
2021/01/29 03:06:37;;;;;;;1.60;1.20;;;8.30;98.20;;;;;;4980895;28;20465;-78
2021/01/29 03:09:12;;;;;;;1.60;1.20;;;8.40;98.20;;;;;;4975423;28;20458;-78
2021/01/29 03:11:46;;;;;;;1.70;1.30;;;8.40;98.20;;;;;;4981292;28;20909;-77
2021/01/29 03:14:18;;;;;;;1.70;1.30;;;8.50;98.20;;;;;;4981285;28;20441;-77
2021/01/29 03:16:49;;;;;;;1.60;1.20;;;8.50;98.20;;;;;;4981682;28;20534;-78
2021/01/29 03:19:27;;;;;;;1.60;1.20;;;8.60;98.20;;;;;;4974139;28;21000;-78
2021/01/29 03:21:59;;;;;;;1.70;1.30;;;8.60;98.20;;;;;;4981346;28;20516;-79
2021/01/29 03:24:32;;;;;;;1.63;1.20;;;8.60;98.20;;;;;;4977980;28;20466;-77
2021/01/29 03:27:04;;;;;;;1.60;1.10;;;8.60;98.20;;;;;;4973723;28;20470;-77
2021/01/29 03:29:37;;;;;;;1.60;1.10;;;8.60;98.20;;;;;;4980759;28;20812;-77
2021/01/29 03:32:07;;;;;;;1.63;1.20;;;8.60;98.20;;;;;;4984536;28;20792;-77
2021/01/29 03:34:41;;;;;;;1.67;1.20;;;8.50;98.20;;;;;;4983058;28;20489;-78
2021/01/29 03:37:14;;;;;;;1.60;1.30;;;8.50;98.20;;;;;;4977084;28;20489;-77
2021/01/29 03:39:41;;;;;;;1.67;1.20;;;8.50;98.20;;;;;;4988468;28;20509;-77
2021/01/29 03:42:27;;;;;;;1.70;1.30;;;8.50;98.20;;;;;;4983165;28;20606;-77
2021/01/29 03:45:00;;;;;;;1.60;1.20;;;8.60;98.20;;;;;;4975364;28;20501;-77
2021/01/29 03:47:34;;;;;;;1.67;1.27;;;8.60;98.20;;;;;;4978868;28;20484;-76
2021/01/29 03:50:11;;;;;;;1.70;1.40;;;8.60;98.20;;;;;;4975778;28;20491;-76
2021/01/29 03:52:46;;;;;;;1.60;1.20;;;8.60;98.20;;;;;;4973755;28;20508;-77
2021/01/29 03:55:28;;;;;;;1.70;1.20;;;8.60;98.20;;;;;;4972572;28;20465;-77
2021/01/29 03:58:02;;;;;;;1.63;1.20;;;8.60;98.20;;;;;;4980018;28;20501;-78
